Time;durP1;ratioP1;P1;durP2;ratioP2;P2;SDS_P1;SDS_P2;PMS_P1;PMS_P2;Temp;Humidity;BMP_temperature;BMP_pressure;BME280_temperature;BME280_humidity;BME280_pressure;Samples;Min_cycle;Max_cycle;Signal;HPM_P1;HPM_P2
2022/09/04 00:00:13;;;;;;;3.65;0.60;;;17.80;99.90;;;;;;5053961;28;20211;-86
2022/09/04 00:03:04;;;;;;;2.42;0.50;;;17.70;99.90;;;;;;5072501;28;20310;-87
2022/09/04 00:05:44;;;;;;;2.50;0.68;;;17.70;99.90;;;;;;5070043;28;20188;-88
2022/09/04 00:08:35;;;;;;;1.58;0.40;;;17.70;99.90;;;;;;5073713;28;20552;-87
2022/09/04 00:11:11;;;;;;;1.73;0.60;;;17.80;99.90;;;;;;5056683;28;20228;-88
2022/09/04 00:13:48;;;;;;;3.25;0.88;;;17.80;99.90;;;;;;5070162;28;20219;-87
2022/09/04 00:16:23;;;;;;;2.65;0.52;;;17.90;99.90;;;;;;5073970;28;20227;-87
2022/09/04 00:19:02;;;;;;;3.50;0.40;;;18.00;99.90;;;;;;5063572;28;20262;-87
2022/09/04 00:21:42;;;;;;;1.23;0.40;;;18.10;99.90;;;;;;5066941;28;20278;-88
2022/09/04 00:24:16;;;;;;;3.75;0.88;;;18.10;99.90;;;;;;5068335;28;20231;-87
2022/09/04 00:26:53;;;;;;;1.77;0.55;;;18.10;99.90;;;;;;5073542;28;20302;-86
2022/09/04 00:29:31;;;;;;;4.38;0.80;;;18.00;99.90;;;;;;5060210;28;20200;-85
2022/09/04 00:32:11;;;;;;;2.80;0.70;;;17.90;99.90;;;;;;5058573;28;20290;-85
2022/09/04 00:34:59;;;;;;;3.58;0.80;;;17.90;99.90;;;;;;5056718;28;20196;-86
2022/09/04 00:37:38;;;;;;;3.10;0.90;;;18.10;99.90;;;;;;5053997;28;20224;-85
2022/09/04 00:40:16;;;;;;;3.03;0.82;;;18.10;99.90;;;;;;5061156;28;20197;-86
2022/09/04 00:43:08;;;;;;;7.03;1.42;;;18.30;99.90;;;;;;5052679;28;20200;-86
2022/09/04 00:46:11;;;;;;;6.18;1.00;;;18.20;99.90;;;;;;5070807;28;20195;-87
2022/09/04 00:49:07;;;;;;;7.78;1.25;;;17.90;99.90;;;;;;5052576;28;20197;-87
2022/09/04 00:51:48;;;;;;;3.72;0.85;;;17.70;99.90;;;;;;5058556;28;20232;-82
2022/09/04 00:54:49;;;;;;;4.55;0.88;;;17.50;99.90;;;;;;5053662;28;20200;-88
2022/09/04 00:57:39;;;;;;;3.75;1.00;;;17.40;99.90;;;;;;5056734;28;20202;-88
2022/09/04 01:00:14;;;;;;;5.38;0.95;;;17.40;99.90;;;;;;5064920;28;20192;-87
2022/09/04 01:03:20;;;;;;;2.67;0.68;;;17.40;99.90;;;;;;5071026;28;20203;-88
2022/09/04 01:06:19;;;;;;;3.60;0.90;;;17.30;99.90;;;;;;5034244;28;20200;-88
2022/09/04 01:09:07;;;;;;;5.75;0.90;;;17.30;99.90;;;;;;5056580;28;20214;-89
2022/09/04 01:11:46;;;;;;;5.47;0.80;;;17.40;99.90;;;;;;5057713;28;20216;-88
2022/09/04 01:14:25;;;;;;;5.35;0.75;;;17.60;99.90;;;;;;5070457;28;20642;-89
2022/09/04 01:17:02;;;;;;;6.20;1.90;;;17.70;99.90;;;;;;5067839;28;20225;-89
2022/09/04 01:19:45;;;;;;;6.47;0.98;;;17.90;99.90;;;;;;5072802;28;20226;-89
2022/09/04 01:22:32;;;;;;;5.10;1.00;;;18.00;99.90;;;;;;5071352;28;20242;-90
2022/09/04 01:25:28;;;;;;;5.93;1.50;;;18.20;99.90;;;;;;5073714;28;20211;-87
2022/09/04 01:28:10;;;;;;;4.47;0.88;;;18.30;99.90;;;;;;5052264;28;20594;-85
2022/09/04 01:30:50;;;;;;;4.05;0.90;;;18.10;99.90;;;;;;5063648;28;20290;-90
2022/09/04 01:33:32;;;;;;;4.22;0.80;;;17.90;99.90;;;;;;5065209;28;20227;-89
2022/09/04 01:36:12;;;;;;;3.83;0.80;;;17.90;99.90;;;;;;5062987;28;20232;-89
2022/09/04 01:38:49;;;;;;;2.30;0.73;;;18.10;99.90;;;;;;5062528;28;20199;-88
2022/09/04 01:41:26;;;;;;;4.32;0.85;;;18.20;99.90;;;;;;5069657;28;20220;-89
2022/09/04 01:44:00;;;;;;;2.78;0.60;;;18.50;99.90;;;;;;5054575;28;20605;-87
2022/09/04 01:46:57;;;;;;;3.10;0.88;;;18.60;99.90;;;;;;5076018;28;20215;-88
2022/09/04 01:49:37;;;;;;;2.70;0.60;;;18.70;99.90;;;;;;5067492;28;20299;-87
2022/09/04 01:52:21;;;;;;;3.05;0.70;;;18.60;99.90;;;;;;5066605;28;20220;-86
2022/09/04 01:55:05;;;;;;;4.20;1.00;;;18.60;99.90;;;;;;5070863;28;20212;-91
2022/09/04 01:57:45;;;;;;;4.22;0.90;;;18.70;99.90;;;;;;5068320;28;20256;-89
2022/09/04 02:00:23;;;;;;;3.95;1.00;;;18.80;99.90;;;;;;5081145;28;20239;-90
2022/09/04 02:03:01;;;;;;;6.75;0.98;;;18.80;99.90;;;;;;5092539;28;20799;-90
2022/09/04 02:05:40;;;;;;;2.63;0.90;;;18.90;99.90;;;;;;5081551;28;20204;-89
2022/09/04 02:08:36;;;;;;;2.60;0.80;;;19.00;99.90;;;;;;5079595;28;20188;-89
2022/09/04 02:11:15;;;;;;;5.38;1.10;;;19.10;99.90;;;;;;5070060;28;20211;-89
2022/09/04 02:14:03;;;;;;;2.58;0.73;;;19.30;99.90;;;;;;5073692;28;20207;-89
2022/09/04 02:16:46;;;;;;;6.05;0.95;;;19.30;99.90;;;;;;5080498;28;20235;-89
2022/09/04 02:19:31;;;;;;;2.92;0.95;;;19.40;99.90;;;;;;5074818;28;20196;-87
2022/09/04 02:22:18;;;;;;;3.97;0.95;;;19.40;99.90;;;;;;5040636;28;20203;-89
2022/09/04 02:24:59;;;;;;;5.40;1.02;;;19.40;99.90;;;;;;5065638;28;20200;-87
2022/09/04 02:27:36;;;;;;;7.20;2.05;;;19.40;99.90;;;;;;5072398;28;20200;-85
2022/09/04 02:30:09;;;;;;;6.05;0.98;;;19.10;99.90;;;;;;5073604;28;20214;-86
2022/09/04 02:32:49;;;;;;;5.13;1.33;;;19.00;99.90;;;;;;5065640;28;20219;-87
2022/09/04 02:35:29;;;;;;;8.00;1.38;;;18.90;99.90;;;;;;5051508;28;20203;-87
2022/09/04 02:38:09;;;;;;;4.53;1.20;;;18.80;99.90;;;;;;5051983;28;20200;-85
2022/09/04 02:40:51;;;;;;;6.15;1.15;;;18.80;99.90;;;;;;5066687;28;20218;-85
2022/09/04 02:43:55;;;;;;;3.65;1.00;;;18.70;99.90;;;;;;5071399;28;20219;-87
2022/09/04 02:46:33;;;;;;;5.70;1.17;;;18.60;99.90;;;;;;5050182;28;20216;-85
2022/09/04 02:49:23;;;;;;;3.80;0.88;;;18.60;99.90;;;;;;5059016;28;20218;-87
2022/09/04 02:52:04;;;;;;;3.38;0.88;;;18.80;99.90;;;;;;5066829;28;20265;-87
2022/09/04 02:55:04;;;;;;;5.05;0.85;;;18.80;99.90;;;;;;5066511;28;20306;-87
2022/09/04 02:57:53;;;;;;;3.47;0.98;;;18.90;99.90;;;;;;5053098;28;20287;-88
2022/09/04 03:00:31;;;;;;;5.88;1.40;;;19.00;99.90;;;;;;5056181;28;20204;-88
2022/09/04 03:03:06;;;;;;;8.23;1.50;;;18.90;99.90;;;;;;5065311;28;20567;-88
2022/09/04 03:05:48;;;;;;;4.60;1.20;;;18.90;99.90;;;;;;5057898;28;20215;-88
2022/09/04 03:08:22;;;;;;;4.03;1.25;;;18.90;99.90;;;;;;5073664;28;20194;-85
2022/09/04 03:10:59;;;;;;;5.45;1.13;;;18.70;99.90;;;;;;5065050;28;20237;-86
2022/09/04 03:13:35;;;;;;;4.65;1.17;;;18.40;99.90;;;;;;5074526;28;20264;-86
2022/09/04 03:16:18;;;;;;;6.75;1.40;;;18.30;99.90;;;;;;5073715;28;20192;-85
2022/09/04 03:19:08;;;;;;;7.63;1.30;;;18.30;99.90;;;;;;5073164;28;20211;-87
2022/09/04 03:21:47;;;;;;;5.45;1.17;;;18.20;99.90;;;;;;5062713;28;20201;-85
2022/09/04 03:24:24;;;;;;;7.45;1.00;;;18.20;99.90;;;;;;5073081;28;20298;-86
2022/09/04 03:26:57;;;;;;;6.18;1.27;;;18.30;99.90;;;;;;5066942;28;20206;-86
2022/09/04 03:29:38;;;;;;;5.20;1.15;;;18.50;99.90;;;;;;5067403;28;20203;-86
2022/09/04 03:32:18;;;;;;;8.70;1.67;;;18.60;99.90;;;;;;5053827;28;20213;-88
2022/09/04 03:35:00;;;;;;;4.57;1.10;;;18.60;99.90;;;;;;5064641;28;20211;-88
2022/09/04 03:37:55;;;;;;;5.88;1.30;;;18.40;99.90;;;;;;5055213;28;20239;-89
2022/09/04 03:40:38;;;;;;;6.47;1.20;;;18.20;99.90;;;;;;5070870;28;20555;-90
2022/09/04 03:43:33;;;;;;;5.60;1.20;;;18.10;99.90;;;;;;5065760;28;20660;-89
2022/09/04 03:46:13;;;;;;;8.02;1.40;;;18.10;99.90;;;;;;5063024;28;20188;-90
2022/09/04 03:49:07;;;;;;;6.57;1.02;;;18.20;99.90;;;;;;5057464;28;20187;-89
2022/09/04 03:51:50;;;;;;;5.80;1.10;;;18.30;99.90;;;;;;5067048;28;20223;-88
2022/09/04 03:54:42;;;;;;;2.30;0.90;;;18.30;99.90;;;;;;5074581;28;20226;-88
2022/09/04 03:57:46;;;;;;;4.10;1.13;;;18.40;99.90;;;;;;5067294;28;20199;-89
2022/09/04 04:00:19;;;;;;;4.55;1.20;;;18.50;99.90;;;;;;5073970;28;20206;-88
2022/09/04 04:03:18;;;;;;;4.35;1.15;;;18.50;99.90;;;;;;5073875;28;20652;-88
2022/09/04 04:06:03;;;;;;;4.18;1.10;;;18.50;99.90;;;;;;5041492;28;20217;-91
2022/09/04 04:08:50;;;;;;;6.00;1.42;;;18.30;99.90;;;;;;5072656;28;20203;-89
2022/09/04 04:11:39;;;;;;;5.88;1.30;;;18.30;99.90;;;;;;5068286;28;20212;-90
2022/09/04 04:14:39;;;;;;;6.68;1.60;;;18.00;99.90;;;;;;5071996;28;20208;-92
2022/09/04 04:17:38;;;;;;;7.10;1.67;;;17.80;99.90;;;;;;5075663;28;20192;-92
2022/09/04 04:20:26;;;;;;;7.45;1.77;;;17.70;99.90;;;;;;5072690;28;20220;-92
2022/09/04 04:23:25;;;;;;;6.80;1.35;;;17.20;99.90;;;;;;5073745;28;20196;-92
2022/09/04 04:26:08;;;;;;;5.90;1.50;;;17.00;99.90;;;;;;5050789;28;20295;-89
2022/09/04 04:28:58;;;;;;;7.80;1.98;;;16.90;99.90;;;;;;5054498;28;20208;-89
2022/09/04 04:31:41;;;;;;;5.45;1.50;;;16.80;99.90;;;;;;5087570;28;20204;-91
2022/09/04 04:34:21;;;;;;;5.05;1.35;;;16.70;99.90;;;;;;5058828;28;20233;-92
2022/09/04 04:36:57;;;;;;;4.20;1.40;;;16.60;99.90;;;;;;5074611;28;20704;-93
2022/09/04 04:39:35;;;;;;;4.00;1.30;;;16.40;99.90;;;;;;5074880;28;20283;-92
2022/09/04 04:42:19;;;;;;;4.55;1.30;;;16.30;99.90;;;;;;5056110;28;20200;-91
2022/09/04 04:48:36;;;;;;;7.25;1.58;;;16.30;99.90;;;;;;5080947;28;20206;-90
2022/09/04 04:51:20;;;;;;;8.40;1.40;;;16.20;99.90;;;;;;5055087;28;20204;-89
2022/09/04 04:53:58;;;;;;;8.85;1.88;;;16.10;99.90;;;;;;5093666;28;20309;-87
2022/09/04 04:56:35;;;;;;;6.50;1.50;;;16.10;99.90;;;;;;5069535;28;20213;-88
2022/09/04 04:59:19;;;;;;;5.18;1.52;;;16.10;99.90;;;;;;5057253;28;20312;-87
2022/09/04 05:02:06;;;;;;;7.55;1.70;;;16.00;99.90;;;;;;5066380;28;20223;-85
2022/09/04 05:04:51;;;;;;;10.13;1.90;;;16.00;99.90;;;;;;5063617;28;20234;-86
2022/09/04 05:07:34;;;;;;;7.80;1.45;;;16.00;99.90;;;;;;5068390;28;20204;-88
2022/09/04 05:10:18;;;;;;;7.40;1.70;;;16.00;99.90;;;;;;5051392;28;20196;-88
2022/09/04 05:13:01;;;;;;;10.02;1.70;;;16.00;99.90;;;;;;5069395;28;20223;-91
2022/09/04 05:15:39;;;;;;;7.13;1.50;;;16.00;99.90;;;;;;5057040;28;20203;-86
2022/09/04 05:18:19;;;;;;;8.90;1.80;;;16.10;99.90;;;;;;5059010;28;20195;-85
2022/09/04 05:20:56;;;;;;;8.50;1.88;;;16.00;99.90;;;;;;5057506;28;20203;-88
2022/09/04 05:23:37;;;;;;;7.80;1.55;;;16.00;99.90;;;;;;5071453;28;20761;-85
2022/09/04 05:26:18;;;;;;;11.18;1.77;;;16.00;99.90;;;;;;5070102;28;20198;-90
2022/09/04 05:28:57;;;;;;;8.82;1.65;;;16.00;99.90;;;;;;5070971;28;20180;-87
2022/09/04 05:31:39;;;;;;;10.10;1.80;;;16.00;99.90;;;;;;5061264;28;20192;-85
2022/09/04 05:34:18;;;;;;;10.45;2.05;;;16.10;99.90;;;;;;5067019;28;20227;-88
2022/09/04 05:36:58;;;;;;;8.57;2.10;;;16.20;99.90;;;;;;5069300;28;20333;-86
2022/09/04 05:39:32;;;;;;;7.18;1.67;;;16.20;99.90;;;;;;5051252;28;20637;-85
2022/09/04 05:42:25;;;;;;;8.88;1.75;;;16.30;99.90;;;;;;5066323;28;20207;-87
2022/09/04 05:45:05;;;;;;;9.52;2.10;;;16.40;99.90;;;;;;5055360;28;20215;-83
2022/09/04 05:47:48;;;;;;;7.40;1.50;;;16.40;99.90;;;;;;5059895;28;20192;-84
2022/09/04 05:50:49;;;;;;;6.07;1.75;;;16.50;99.90;;;;;;5066057;28;20203;-83
2022/09/04 05:53:56;;;;;;;8.23;1.40;;;16.50;99.90;;;;;;5068621;28;20598;-88
2022/09/04 05:57:03;;;;;;;7.95;1.20;;;16.50;99.90;;;;;;5070857;28;20203;-87
2022/09/04 06:00:08;;;;;;;5.43;1.20;;;16.60;99.90;;;;;;5061800;28;20222;-86
2022/09/04 06:03:10;;;;;;;6.95;1.38;;;16.80;99.90;;;;;;5054789;28;20221;-86
2022/09/04 06:06:11;;;;;;;3.10;1.10;;;17.00;99.90;;;;;;5061291;28;20215;-87
2022/09/04 06:09:14;;;;;;;5.68;1.25;;;17.20;99.90;;;;;;5048013;28;20210;-89
2022/09/04 06:12:07;;;;;;;4.07;1.00;;;17.40;99.90;;;;;;5060601;28;20279;-94
2022/09/04 06:15:08;;;;;;;3.65;1.10;;;17.50;99.90;;;;;;5075040;28;20239;-93
2022/09/04 06:17:56;;;;;;;7.88;1.40;;;17.80;99.90;;;;;;5079228;28;20191;-94
2022/09/04 06:20:42;;;;;;;5.40;1.05;;;17.90;99.90;;;;;;5085690;28;20184;-89
2022/09/04 06:23:49;;;;;;;7.78;1.40;;;18.00;99.90;;;;;;5068161;28;20251;-90
2022/09/04 06:27:02;;;;;;;5.97;1.02;;;17.90;99.90;;;;;;5080490;28;20220;-96
2022/09/04 06:30:06;;;;;;;3.78;1.02;;;17.80;99.90;;;;;;5046913;28;20218;-93
2022/09/04 06:33:07;;;;;;;6.75;1.30;;;17.70;99.90;;;;;;5088123;28;20225;-96
2022/09/04 06:39:36;;;;;;;5.07;1.35;;;17.50;99.90;;;;;;5066740;28;20289;-94
2022/09/04 06:42:23;;;;;;;3.85;1.20;;;17.40;99.90;;;;;;5070806;28;20196;-94
2022/09/04 06:45:22;;;;;;;9.52;1.75;;;17.40;99.90;;;;;;5081325;28;20200;-93
2022/09/04 06:48:07;;;;;;;4.72;1.20;;;17.30;99.90;;;;;;5071509;28;20242;-85
2022/09/04 06:50:46;;;;;;;5.43;1.23;;;17.30;99.90;;;;;;5054524;28;20212;-87
2022/09/04 06:53:28;;;;;;;9.50;1.27;;;17.10;99.90;;;;;;5071009;28;20225;-87
2022/09/04 06:56:12;;;;;;;5.15;1.50;;;17.00;99.90;;;;;;5072778;28;20200;-84
2022/09/04 06:59:14;;;;;;;8.27;1.20;;;16.90;99.90;;;;;;5072900;28;20629;-85
2022/09/04 07:01:59;;;;;;;5.22;1.20;;;16.80;99.90;;;;;;5061400;28;20192;-84
2022/09/04 07:04:42;;;;;;;6.70;1.25;;;16.70;99.90;;;;;;5068249;28;20223;-84
2022/09/04 07:07:24;;;;;;;7.03;1.27;;;16.50;99.90;;;;;;5072928;28;20196;-84
2022/09/04 07:09:59;;;;;;;5.57;1.00;;;16.50;99.90;;;;;;5061959;28;20192;-84
2022/09/04 07:12:58;;;;;;;3.65;1.10;;;16.40;99.90;;;;;;5073195;28;20206;-83
2022/09/04 07:16:00;;;;;;;3.28;0.80;;;16.30;99.90;;;;;;5069771;28;20200;-82
2022/09/04 07:19:06;;;;;;;3.17;0.95;;;16.10;99.90;;;;;;5069815;28;20240;-84
2022/09/04 07:21:50;;;;;;;4.15;0.80;;;16.00;99.90;;;;;;5072475;28;20537;-84
2022/09/04 07:24:40;;;;;;;6.72;1.40;;;16.00;99.90;;;;;;5072971;28;20226;-83
2022/09/04 07:27:17;;;;;;;5.85;1.10;;;15.90;99.90;;;;;;5067783;28;20207;-83
2022/09/04 07:29:52;;;;;;;2.50;0.80;;;15.90;99.90;;;;;;5072242;28;20195;-85
2022/09/04 07:32:30;;;;;;;4.57;1.35;;;15.90;99.90;;;;;;5073052;28;20191;-84
2022/09/04 07:35:08;;;;;;;4.85;1.20;;;15.90;99.90;;;;;;5071812;28;20227;-85
2022/09/04 07:37:48;;;;;;;6.30;2.35;;;15.80;99.90;;;;;;5068646;28;20282;-86
2022/09/04 07:40:23;;;;;;;4.07;1.60;;;15.70;99.90;;;;;;5073697;28;20188;-86
2022/09/04 07:43:02;;;;;;;3.22;1.70;;;15.80;99.90;;;;;;5071141;28;20195;-86
2022/09/04 07:45:47;;;;;;;7.15;3.20;;;15.80;99.90;;;;;;5074254;28;20623;-86
2022/09/04 07:48:29;;;;;;;5.28;1.63;;;15.80;99.90;;;;;;5073229;28;20192;-86
2022/09/04 07:51:08;;;;;;;3.85;1.30;;;15.80;99.90;;;;;;5071601;28;20196;-85
2022/09/04 07:54:10;;;;;;;5.05;1.95;;;15.70;99.90;;;;;;5065311;28;20632;-85
2022/09/04 07:57:03;;;;;;;3.17;1.30;;;15.70;99.90;;;;;;5071542;28;20249;-86
2022/09/04 08:00:12;;;;;;;6.20;2.13;;;15.70;99.90;;;;;;5073177;28;20283;-86
2022/09/04 08:03:05;;;;;;;2.83;1.00;;;15.80;99.90;;;;;;5065358;28;20283;-86
2022/09/04 08:05:41;;;;;;;2.50;1.15;;;15.70;99.90;;;;;;5069984;28;20198;-87
2022/09/04 08:08:40;;;;;;;4.55;1.40;;;15.70;99.90;;;;;;5070861;28;20712;-86
2022/09/04 08:11:51;;;;;;;6.28;2.08;;;15.70;99.90;;;;;;5066236;28;20207;-86
2022/09/04 08:14:35;;;;;;;3.00;1.60;;;15.60;99.90;;;;;;5071960;28;20708;-89
2022/09/04 08:17:40;;;;;;;5.80;1.83;;;15.60;99.90;;;;;;5074691;28;20191;-86
2022/09/04 08:20:36;;;;;;;6.57;1.60;;;15.60;99.90;;;;;;5057751;28;20207;-85
2022/09/04 08:23:25;;;;;;;3.28;1.27;;;15.50;99.90;;;;;;5068208;28;20566;-86
2022/09/04 08:26:13;;;;;;;5.30;1.60;;;15.50;99.90;;;;;;5065559;28;20642;-87
2022/09/04 08:29:10;;;;;;;6.43;1.48;;;15.50;99.90;;;;;;5055255;28;20634;-82
2022/09/04 08:31:48;;;;;;;4.82;1.30;;;15.50;99.90;;;;;;5067410;28;20236;-82
2022/09/04 08:34:54;;;;;;;2.85;1.00;;;15.50;99.90;;;;;;5052964;28;20653;-81
2022/09/04 08:37:28;;;;;;;6.68;1.35;;;15.50;99.90;;;;;;5058617;28;20219;-80
2022/09/04 08:40:20;;;;;;;4.38;0.90;;;15.30;99.90;;;;;;5069989;28;20685;-79
2022/09/04 08:43:22;;;;;;;9.30;4.50;;;15.30;99.90;;;;;;5067050;28;20197;-81
2022/09/04 08:46:35;;;;;;;11.35;7.38;;;15.30;99.90;;;;;;5034318;28;20234;-81
2022/09/04 08:49:44;;;;;;;12.73;7.32;;;15.30;99.90;;;;;;5028143;28;20287;-82
2022/09/04 08:52:43;;;;;;;7.68;4.03;;;15.20;99.90;;;;;;4990817;28;20205;-83
2022/09/04 08:55:36;;;;;;;8.05;3.70;;;15.20;99.90;;;;;;5060763;28;20220;-82
2022/09/04 08:58:50;;;;;;;8.73;4.10;;;15.20;99.90;;;;;;5069864;28;20275;-84
2022/09/04 09:01:58;;;;;;;5.15;3.05;;;15.10;99.90;;;;;;5068136;28;20216;-83
2022/09/04 09:05:00;;;;;;;6.07;3.10;;;15.10;99.90;;;;;;5072808;28;20195;-82
2022/09/04 09:08:15;;;;;;;10.02;2.83;;;15.10;99.90;;;;;;5070898;28;20203;-82
2022/09/04 09:11:11;;;;;;;6.32;2.53;;;15.10;99.90;;;;;;5067764;28;20223;-83
2022/09/04 09:14:13;;;;;;;9.63;4.53;;;15.10;99.90;;;;;;5056432;28;20607;-82
2022/09/04 09:16:46;;;;;;;12.95;5.68;;;15.10;99.90;;;;;;5069996;28;20286;-82
2022/09/04 09:19:29;;;;;;;19.15;10.07;;;15.10;99.90;;;;;;5070483;28;20662;-82
2022/09/04 09:22:11;;;;;;;14.02;7.68;;;15.10;99.90;;;;;;5065860;28;20281;-83
2022/09/04 09:25:14;;;;;;;10.27;4.95;;;15.10;99.90;;;;;;5069681;28;20196;-82
2022/09/04 09:28:12;;;;;;;5.90;2.28;;;15.10;99.90;;;;;;5070270;28;20196;-82
2022/09/04 09:31:21;;;;;;;5.50;1.42;;;15.20;99.90;;;;;;5032604;28;20203;-83
2022/09/04 09:34:38;;;;;;;4.13;1.50;;;15.20;99.90;;;;;;5085145;28;20280;-80
2022/09/04 09:37:40;;;;;;;2.95;0.98;;;15.20;99.90;;;;;;5031560;28;20223;-82
2022/09/04 09:40:54;;;;;;;5.32;1.42;;;15.20;99.90;;;;;;5057326;28;20199;-82
2022/09/04 09:43:56;;;;;;;6.00;1.58;;;15.20;99.90;;;;;;5072250;28;20203;-84
2022/09/04 09:50:13;;;;;;;5.75;2.50;;;15.30;99.90;;;;;;5060207;27;20624;-81
2022/09/04 09:53:21;;;;;;;6.60;2.45;;;15.20;99.90;;;;;;5060937;28;20202;-82
2022/09/04 09:56:17;;;;;;;7.60;2.40;;;15.20;99.90;;;;;;5041458;28;20218;-83
2022/09/04 09:59:21;;;;;;;8.45;2.75;;;15.20;99.90;;;;;;5048397;28;20569;-83
2022/09/04 10:02:40;;;;;;;9.65;3.85;;;15.20;99.90;;;;;;5053390;28;20218;-83
2022/09/04 10:05:46;;;;;;;5.97;2.90;;;15.20;99.90;;;;;;5052032;28;20192;-82
2022/09/04 10:08:44;;;;;;;7.20;2.45;;;15.20;99.90;;;;;;5053848;28;20228;-83
2022/09/04 10:11:43;;;;;;;7.28;2.63;;;15.20;99.90;;;;;;5053455;28;20215;-82
2022/09/04 10:14:56;;;;;;;5.95;2.53;;;15.10;99.90;;;;;;5065725;28;20278;-82
2022/09/04 10:18:25;;;;;;;7.85;2.65;;;15.10;99.90;;;;;;5055256;28;20210;-82
2022/09/04 10:21:27;;;;;;;9.88;3.05;;;15.10;99.90;;;;;;5025211;28;20235;-81
2022/09/04 10:24:30;;;;;;;7.07;2.92;;;15.00;99.90;;;;;;5067189;28;20208;-81
2022/09/04 10:27:36;;;;;;;5.43;2.38;;;14.90;99.90;;;;;;5047395;28;20196;-81
2022/09/04 10:30:18;;;;;;;14.85;6.70;;;14.90;99.90;;;;;;5055697;28;20227;-84
2022/09/04 10:33:13;;;;;;;10.98;5.68;;;14.80;99.90;;;;;;5062973;28;20193;-83
2022/09/04 10:36:05;;;;;;;5.85;2.40;;;14.80;99.90;;;;;;5062939;28;20206;-82
2022/09/04 10:42:00;;;;;;;5.78;1.88;;;14.70;99.90;;;;;;5053311;28;20197;-82
2022/09/04 10:45:14;;;;;;;5.03;1.70;;;14.80;99.90;;;;;;5042693;28;20222;-83
2022/09/04 10:48:11;;;;;;;6.72;2.28;;;14.70;99.90;;;;;;5030692;28;20242;-82
2022/09/04 10:51:21;;;;;;;5.97;2.10;;;14.70;99.90;;;;;;5062318;28;20200;-82
2022/09/04 10:54:24;;;;;;;5.05;2.05;;;14.60;99.90;;;;;;5071013;28;20207;-83
2022/09/04 10:57:10;;;;;;;4.53;2.17;;;14.60;99.90;;;;;;5043416;28;20220;-82
2022/09/04 11:00:04;;;;;;;5.28;2.53;;;14.50;99.90;;;;;;5057796;28;20194;-82
2022/09/04 11:03:02;;;;;;;6.70;2.15;;;14.50;99.90;;;;;;5054808;28;20274;-84
2022/09/04 11:05:56;;;;;;;4.70;2.17;;;14.40;99.90;;;;;;5051537;28;20216;-82
2022/09/04 11:08:51;;;;;;;4.22;1.73;;;14.40;99.90;;;;;;5057401;28;20227;-82
2022/09/04 11:11:49;;;;;;;3.92;1.48;;;14.40;99.90;;;;;;5046631;28;20249;-82
2022/09/04 11:14:52;;;;;;;3.65;1.50;;;14.30;99.90;;;;;;5036817;28;20205;-81
2022/09/04 11:17:57;;;;;;;4.97;1.45;;;14.30;99.90;;;;;;5051377;28;20277;-80
2022/09/04 11:21:14;;;;;;;6.40;2.50;;;14.20;99.90;;;;;;5038136;28;20220;-80
2022/09/04 11:24:22;;;;;;;3.67;1.58;;;14.20;99.90;;;;;;5053422;28;20221;-80
2022/09/04 11:27:30;;;;;;;7.55;2.15;;;14.00;99.90;;;;;;5054607;28;20655;-82
2022/09/04 11:30:29;;;;;;;6.93;2.42;;;14.00;99.90;;;;;;5045070;28;20254;-83
2022/09/04 11:33:46;;;;;;;7.15;2.70;;;14.00;99.90;;;;;;5045931;28;20209;-82
2022/09/04 11:36:58;;;;;;;4.97;2.10;;;14.00;99.90;;;;;;5048535;28;20228;-82
2022/09/04 11:40:02;;;;;;;4.53;2.05;;;14.00;99.90;;;;;;4997123;28;20203;-82
2022/09/04 11:42:42;;;;;;;3.95;1.88;;;14.10;99.90;;;;;;4982369;28;20281;-82
2022/09/04 11:45:42;;;;;;;4.72;2.40;;;14.20;99.90;;;;;;5046775;28;20216;-82
2022/09/04 11:48:49;;;;;;;4.70;2.28;;;14.20;99.90;;;;;;5050747;28;20590;-82
2022/09/04 11:51:52;;;;;;;4.55;2.75;;;14.20;99.90;;;;;;5054736;28;20724;-82
2022/09/04 11:54:54;;;;;;;5.55;2.30;;;14.20;99.90;;;;;;5057747;28;20678;-81
2022/09/04 11:57:36;;;;;;;3.22;1.60;;;14.10;99.90;;;;;;5028406;28;20239;-82
2022/09/04 12:00:15;;;;;;;5.78;1.83;;;14.10;99.90;;;;;;5037788;28;20201;-83
2022/09/04 12:03:14;;;;;;;3.28;1.63;;;14.10;99.90;;;;;;5037092;28;20193;-82
2022/09/04 12:06:22;;;;;;;4.93;1.65;;;14.10;99.90;;;;;;5043300;28;20203;-83
2022/09/04 12:09:42;;;;;;;4.28;1.50;;;14.20;99.90;;;;;;5056316;28;20231;-82
2022/09/04 12:12:53;;;;;;;3.75;1.50;;;14.20;99.90;;;;;;5045111;28;20197;-82
2022/09/04 12:16:03;;;;;;;4.88;1.20;;;14.10;99.90;;;;;;5009609;28;20213;-81
2022/09/04 12:19:09;;;;;;;5.53;1.30;;;14.10;99.90;;;;;;5049436;28;20208;-81
2022/09/04 12:22:07;;;;;;;4.82;1.45;;;14.10;99.90;;;;;;5041044;28;20203;-83
2022/09/04 12:25:10;;;;;;;4.68;1.30;;;14.00;99.90;;;;;;5038236;28;20617;-84
2022/09/04 12:28:22;;;;;;;3.05;1.42;;;14.00;99.90;;;;;;4976102;28;20699;-84
2022/09/04 12:31:09;;;;;;;4.57;1.55;;;14.10;99.90;;;;;;5041435;28;20192;-84
2022/09/04 12:34:03;;;;;;;3.22;1.30;;;14.00;99.90;;;;;;5037579;28;20189;-84
2022/09/04 12:37:18;;;;;;;3.80;1.38;;;14.00;99.90;;;;;;5052798;28;20195;-83
2022/09/04 12:40:28;;;;;;;2.72;1.33;;;14.00;99.90;;;;;;5033494;28;20724;-83
2022/09/04 12:43:15;;;;;;;2.67;1.17;;;13.90;99.90;;;;;;5034997;28;20246;-84
2022/09/04 12:45:58;;;;;;;6.93;1.45;;;13.90;99.90;;;;;;5036035;28;20204;-84
2022/09/04 12:48:39;;;;;;;3.13;1.45;;;13.90;99.90;;;;;;5038550;28;20229;-84
2022/09/04 12:51:15;;;;;;;3.05;1.33;;;13.80;99.90;;;;;;5038811;28;20197;-83
2022/09/04 12:54:16;;;;;;;4.22;1.23;;;13.70;99.90;;;;;;5039844;28;20193;-84
2022/09/04 12:57:05;;;;;;;4.82;1.48;;;13.70;99.90;;;;;;5035731;28;20205;-83
2022/09/04 12:59:53;;;;;;;2.42;1.63;;;13.70;99.90;;;;;;5036683;28;20197;-83
2022/09/04 13:02:35;;;;;;;4.55;1.80;;;13.60;99.90;;;;;;5046587;28;20181;-83
2022/09/04 13:05:22;;;;;;;4.45;1.77;;;13.60;99.90;;;;;;5067182;28;20228;-82
2022/09/04 13:08:03;;;;;;;7.40;1.98;;;13.60;99.90;;;;;;5059527;28;20447;-81
2022/09/04 13:10:47;;;;;;;5.32;1.60;;;13.60;99.90;;;;;;5043642;28;20196;-83
2022/09/04 13:13:33;;;;;;;3.88;1.60;;;13.60;99.90;;;;;;5049206;28;20207;-81
2022/09/04 13:16:15;;;;;;;4.45;1.40;;;13.50;99.90;;;;;;5044173;28;20208;-81
2022/09/04 13:19:00;;;;;;;3.05;1.30;;;13.50;99.90;;;;;;5039590;28;20209;-80
2022/09/04 13:21:54;;;;;;;3.63;1.25;;;13.50;99.90;;;;;;5038507;28;20279;-82
2022/09/04 13:24:40;;;;;;;4.35;1.42;;;13.50;99.90;;;;;;5039550;28;20558;-83
2022/09/04 13:27:25;;;;;;;3.65;1.50;;;13.60;99.90;;;;;;5044691;28;20247;-82
2022/09/04 13:30:08;;;;;;;5.15;1.23;;;13.50;99.90;;;;;;5043234;28;20290;-84
2022/09/04 13:32:55;;;;;;;3.40;1.00;;;13.50;99.90;;;;;;5037367;28;20200;-83
2022/09/04 13:35:50;;;;;;;3.90;1.02;;;13.50;99.90;;;;;;5035321;28;20517;-83
2022/09/04 13:38:43;;;;;;;3.40;1.33;;;13.50;99.90;;;;;;5036739;28;20205;-82
2022/09/04 13:41:47;;;;;;;3.33;1.25;;;13.60;99.90;;;;;;5057813;28;20188;-82
2022/09/04 13:44:50;;;;;;;2.63;1.08;;;13.60;99.90;;;;;;5038649;28;20202;-83
2022/09/04 13:47:25;;;;;;;2.58;1.00;;;13.70;99.90;;;;;;5036693;28;20204;-83
2022/09/04 13:50:00;;;;;;;3.30;1.27;;;13.70;99.90;;;;;;5042503;28;20584;-83
2022/09/04 13:52:38;;;;;;;2.88;1.30;;;13.70;99.90;;;;;;5038732;28;20248;-83
2022/09/04 13:55:14;;;;;;;4.55;1.30;;;13.70;99.90;;;;;;5041603;28;20238;-83
2022/09/04 13:57:54;;;;;;;3.00;1.00;;;13.70;99.90;;;;;;5049017;28;20194;-83
2022/09/04 14:00:25;;;;;;;3.10;1.20;;;13.70;99.90;;;;;;5034728;28;20624;-82
2022/09/04 14:03:07;;;;;;;2.28;1.05;;;13.70;99.90;;;;;;5037772;28;20201;-83
2022/09/04 14:05:39;;;;;;;2.85;1.10;;;13.70;99.90;;;;;;5033779;28;20250;-83
2022/09/04 14:08:16;;;;;;;2.15;1.00;;;13.60;99.90;;;;;;5050547;28;20204;-83
2022/09/04 14:11:01;;;;;;;3.92;1.15;;;13.60;99.90;;;;;;5042466;28;20686;-82
2022/09/04 14:13:56;;;;;;;5.05;1.10;;;13.60;99.90;;;;;;5047053;28;20223;-82
2022/09/04 14:16:26;;;;;;;3.35;1.00;;;13.50;99.90;;;;;;5039123;28;20193;-82
2022/09/04 14:19:20;;;;;;;2.63;0.98;;;13.50;99.90;;;;;;5036258;28;20228;-84
2022/09/04 14:22:13;;;;;;;4.45;1.10;;;13.50;99.90;;;;;;5048654;28;20217;-88
2022/09/04 14:24:50;;;;;;;4.53;1.30;;;13.50;99.90;;;;;;5050213;28;20197;-85
2022/09/04 14:27:33;;;;;;;4.25;1.20;;;13.50;99.90;;;;;;5050484;28;20224;-87
2022/09/04 14:30:10;;;;;;;3.15;1.05;;;13.40;99.90;;;;;;5044161;28;20213;-86
2022/09/04 14:32:59;;;;;;;5.22;1.42;;;13.50;99.90;;;;;;5041385;28;20280;-87
2022/09/04 14:35:41;;;;;;;1.77;0.95;;;13.40;99.90;;;;;;5033197;28;20208;-88
2022/09/04 14:38:34;;;;;;;2.40;1.00;;;13.30;99.90;;;;;;5047090;28;20724;-88
2022/09/04 14:41:16;;;;;;;3.42;0.80;;;13.30;99.90;;;;;;5049060;28;20196;-87
2022/09/04 14:44:02;;;;;;;3.67;1.30;;;13.40;99.90;;;;;;5037926;28;20270;-87
2022/09/04 14:46:41;;;;;;;4.57;1.30;;;13.40;99.90;;;;;;5035667;28;20280;-86
2022/09/04 14:49:16;;;;;;;4.28;0.85;;;13.40;99.90;;;;;;5053349;28;20228;-87
2022/09/04 14:51:53;;;;;;;1.77;1.02;;;13.40;99.90;;;;;;5040235;28;20203;-87
2022/09/04 14:54:30;;;;;;;2.28;1.00;;;13.30;99.90;;;;;;5042205;28;20191;-88